Terminal Aerodrome Forecast
Issued by NWS Mobile, AL

Home | Current Version | Previous Version | Text Only | Print | Product List | Glossary On
Versions: 1 2 3 4 5 6 7 8 9 10 11 12 13 14 15 16 17 18 19 20 21 22 23 24 25 26 27
000
FTUS44 KMOB 231916 AAA
TAFMOB
TAF AMD
KMOB 231916Z 2319/2418 14013KT P6SM VCSH FEW015 BKN035 BKN080
      TEMPO 2320/2324 5SM -RA BKN015
     FM240000 15009KT P6SM SCT030 BKN120
     FM240300 15005KT 4SM BR BKN010
      TEMPO 2409/2412 1SM BR OVC007
     FM241500 16009KT P6SM OVC030=

USA.gov is the U.S. government's official web portal to all federal, state and local government web resources and services.